Impacts METAR Board
IDs:

KSAN - San Diego Intl Arpt, CA, US

Updated at: 2200 UTC 14 Aug 2018
Potential Impact None Slight Moderate High
Time 14/10Z 14/11Z 14/12Z 14/13Z 14/14Z 14/15Z 14/16Z 14/17Z 14/18Z 14/19Z 14/20Z 14/21Z 14/22Z
Temp73 73 73 73 73 74 77 78 79 81 81 81 80
Dewpt65 65 65 65 64 65 64 64 64 64 65 65 66
Altim29.92 29.91 29.90 29.91 29.92 29.93 29.93 29.93 29.93 29.92 29.91 29.90 29.89
VIS10 10 10 10 10 10 10 10 10 10 10 10 10
CIG-- -- 17 18 19 21 21 -- -- -- -- -- 60
CoverSCTSCTBKNBKNBKNBKNBKNSCTFEWFEWFEWFEWBKN
FltCatVFRVFRMVFRMVFRMVFRMVFRMVFRVFRVFRVFRVFRVFRVFR
WX--------------------------
WDir360330350340035000260280300280290
WSpd3 3 4 4 0 4 0 3 7 9 10 7 10
WGst-- -- -- -- -- -- -- -- -- -- -- -- --
Raw hourly METARs
KSAN 140951Z 36003KT 10SM SCT017 23/18 A2992 RMK AO2 SLP132 T02280183
KSAN 141051Z 33003KT 10SM SCT017 23/18 A2991 RMK AO2 SLP128 T02280183
KSAN 141151Z 35004KT 10SM BKN017 23/18 A2990 RMK AO2 SLP126 T02280183 10233 20228 56010
KSAN 141251Z 34004KT 10SM BKN018 23/18 A2991 RMK AO2 SLP127 T02280183
KSAN 141351Z 00000KT 10SM BKN019 23/18 A2992 RMK AO2 SLP130 T02280178
KSAN 141451Z 35004KT 10SM BKN021 23/18 A2993 RMK AO2 SLP133 T02330183 53007
KSAN 141551Z 00000KT 10SM BKN021 25/18 A2993 RMK AO2 SLP135 T02500178
KSAN 141651Z VRB03KT 10SM SCT021 26/18 A2993 RMK AO2 SLP135 T02560178
KSAN 141751Z 26007KT 10SM FEW021 26/18 A2993 RMK AO2 SLP135 T02610178 10267 20228 50002
KSAN 141851Z 28009KT 10SM FEW021 27/18 A2992 RMK AO2 SLP130 T02720178
KSAN 141951Z 30010KT 10SM FEW021 FEW060 27/18 A2991 RMK AO2 SLP128 T02720183
KSAN 142051Z 28007KT 10SM FEW020 FEW060 27/18 A2990 RMK AO2 SLP125 T02720183 56010
KSAN 142151Z 29010KT 10SM SCT020 BKN060 27/19 A2989 RMK AO2 SLP121 SCT V BKN TCU DSNT E T02670189



Page loaded:  22:04 UTC  |   03:04 PM Pacific  |   04:04 PM Mountain  |   05:04 PM Central  |   06:04 PM Eastern

 

ADVISORIES

FORECASTS

FORECASTS

OBSERVATIONS

USER TOOLS

ABOUT US